Terminal Aerodrome Forecast
Issued by NWS Wilmington, OH

Current Version | Previous Version | Text Only | Print | Product List | Glossary Off
Versions: 1 2 3 4 5 6 7 8 9 10 11 12 13 14 15 16 17 18 19 20 21 22 23 24 25 26 27 28 29 30

000
FTUS41 KILN 270900 AAC
TAFCVG
TAF AMD
KCVG 270900Z 2709/2812 22006KT P6SM SCT110
     FM271300 20010KT P6SM VCTS SCT030CB BKN100
     FM271500 24012G22KT P6SM -SHRA VCTS BKN035CB
     FM272100 27014G25KT P6SM BKN040
     FM280100 30010KT P6SM SCT050 BKN250=

USA.gov is the U.S. government's official web portal to all federal, state and local government web resources and services.